createdAt,value
2023-01-19T00:00:34.894Z,7.86
2023-01-19T00:03:31.801Z,6.66
2023-01-19T00:06:15.524Z,5.98
2023-01-19T00:09:03.677Z,5.43
2023-01-19T00:11:39.455Z,4.99
2023-01-19T00:14:27.480Z,4.61
2023-01-19T00:17:08.459Z,4.29
2023-01-19T00:19:56.480Z,4.60
2023-01-19T00:22:31.116Z,7.14
2023-01-19T00:25:20.462Z,8.94
2023-01-19T00:27:57.085Z,8.95
2023-01-19T00:30:45.827Z,7.60
2023-01-19T00:33:20.875Z,6.54
2023-01-19T00:36:08.469Z,5.81
2023-01-19T00:38:56.605Z,5.28
2023-01-19T00:41:56.461Z,4.89
2023-01-19T00:44:37.890Z,4.57
2023-01-19T00:47:18.602Z,4.31
2023-01-19T00:50:01.007Z,4.62
2023-01-19T00:52:42.687Z,7.40
2023-01-19T00:55:31.485Z,9.53
2023-01-19T00:58:19.485Z,9.53
2023-01-19T01:01:04.741Z,8.14
2023-01-19T01:04:00.445Z,7.03
2023-01-19T01:06:48.517Z,6.28
2023-01-19T01:09:31.458Z,5.78
2023-01-19T01:12:19.466Z,5.37
2023-01-19T01:15:01.653Z,5.04
2023-01-19T01:17:59.482Z,4.78
2023-01-19T01:20:47.488Z,5.41
2023-01-19T01:23:30.459Z,8.09
2023-01-19T01:26:27.077Z,9.29
2023-01-19T01:29:26.971Z,8.12
2023-01-19T01:32:15.665Z,6.98
2023-01-19T01:34:50.780Z,6.26
2023-01-19T01:37:39.670Z,5.69
2023-01-19T01:40:23.793Z,5.27
2023-01-19T01:43:05.715Z,4.93
2023-01-19T01:45:49.005Z,4.61
2023-01-19T01:48:34.657Z,4.32
2023-01-19T01:51:26.845Z,4.95
2023-01-19T01:54:27.441Z,7.70
2023-01-19T01:57:19.449Z,9.54
2023-01-19T02:00:02.437Z,8.75
2023-01-19T02:03:04.041Z,7.39
2023-01-19T02:05:38.975Z,6.45
2023-01-19T02:09:08.805Z,5.89
2023-01-19T02:12:09.939Z,5.37
2023-01-19T02:14:58.496Z,5.00
2023-01-19T02:17:34.650Z,4.74
2023-01-19T02:20:25.671Z,5.16
2023-01-19T02:23:09.551Z,7.91
2023-01-19T02:25:57.509Z,9.64
2023-01-19T02:28:32.211Z,8.97
2023-01-19T02:31:21.449Z,7.64
2023-01-19T02:34:02.460Z,6.73
2023-01-19T02:36:52.573Z,6.10
2023-01-19T02:39:40.637Z,5.58
2023-01-19T02:42:51.512Z,5.16
2023-01-19T02:45:33.434Z,4.85
2023-01-19T02:48:16.729Z,4.60
2023-01-19T02:51:10.433Z,4.38
2023-01-19T02:54:16.643Z,5.06
2023-01-19T02:57:15.461Z,7.94
2023-01-19T03:00:15.638Z,9.50
2023-01-19T03:03:06.666Z,9.31
2023-01-19T03:06:03.436Z,7.91
2023-01-19T03:09:03.599Z,6.89
2023-01-19T03:11:57.449Z,6.16
2023-01-19T03:14:35.775Z,5.73
2023-01-19T03:17:25.434Z,5.40
2023-01-19T03:20:00.556Z,5.08
2023-01-19T03:22:49.442Z,4.80
2023-01-19T03:25:26.947Z,4.52
2023-01-19T03:28:14.535Z,4.21
2023-01-19T03:30:53.692Z,4.60
2023-01-19T03:33:44.626Z,7.36
2023-01-19T03:36:48.434Z,9.44
2023-01-19T03:39:24.770Z,9.38
2023-01-19T03:42:16.442Z,8.01
2023-01-19T03:44:52.978Z,6.94
2023-01-19T03:47:41.492Z,6.20
2023-01-19T03:50:31.437Z,5.65
2023-01-19T03:53:31.616Z,5.17
2023-01-19T03:56:31.424Z,4.79
2023-01-19T03:59:07.930Z,4.52
2023-01-19T04:01:56.442Z,4.27
2023-01-19T04:04:31.815Z,4.67
2023-01-19T04:07:19.504Z,7.32
2023-01-19T04:09:54.558Z,9.37
2023-01-19T04:12:42.419Z,9.71
2023-01-19T04:15:25.442Z,8.40
2023-01-19T04:18:13.661Z,7.19
2023-01-19T04:20:48.753Z,6.36
2023-01-19T04:23:36.631Z,5.71
2023-01-19T04:26:14.599Z,5.22
2023-01-19T04:29:02.629Z,4.83
2023-01-19T04:31:51.608Z,5.08
2023-01-19T04:34:26.821Z,7.52
2023-01-19T04:37:15.434Z,9.26
2023-01-19T04:39:56.636Z,9.54
2023-01-19T04:42:38.746Z,8.12
2023-01-19T04:45:21.407Z,6.89
2023-01-19T04:48:04.865Z,5.96
2023-01-19T04:50:53.575Z,5.32
2023-01-19T04:53:35.625Z,4.81
2023-01-19T04:56:30.421Z,4.43
2023-01-19T04:59:18.619Z,4.80
2023-01-19T05:01:53.782Z,7.17
2023-01-19T05:04:41.599Z,9.16
2023-01-19T05:07:23.627Z,9.91
2023-01-19T05:10:20.402Z,8.54
2023-01-19T05:13:15.409Z,7.16
2023-01-19T05:16:03.633Z,6.25
2023-01-19T05:18:45.621Z,5.67
2023-01-19T05:21:40.614Z,5.20
2023-01-19T05:24:28.596Z,4.80
2023-01-19T05:27:04.612Z,4.48
2023-01-19T05:29:52.403Z,4.73
2023-01-19T05:32:28.093Z,7.22
2023-01-19T05:35:20.123Z,9.19
2023-01-19T05:37:57.524Z,9.79
2023-01-19T05:40:45.594Z,8.56
2023-01-19T05:43:28.393Z,7.39
2023-01-19T05:46:23.410Z,6.57
2023-01-19T05:49:12.400Z,5.95
2023-01-19T05:51:47.838Z,5.52
2023-01-19T05:54:42.397Z,5.16
2023-01-19T05:57:37.581Z,4.77
2023-01-19T06:00:25.399Z,5.29
2023-01-19T06:03:07.635Z,7.85
2023-01-19T06:05:55.506Z,9.76
2023-01-19T06:08:37.601Z,10.13
2023-01-19T06:11:25.438Z,8.69
2023-01-19T06:14:13.597Z,7.37
2023-01-19T06:16:49.438Z,6.48
2023-01-19T06:19:38.404Z,5.86
2023-01-19T06:22:13.462Z,5.37
2023-01-19T06:25:01.398Z,5.65
2023-01-19T06:27:37.218Z,8.25
2023-01-19T06:30:27.391Z,9.90
2023-01-19T06:33:02.830Z,9.75
2023-01-19T06:35:51.382Z,8.29
2023-01-19T06:38:32.386Z,7.12
2023-01-19T06:41:13.730Z,6.26
2023-01-19T06:43:55.595Z,5.67
2023-01-19T06:46:37.715Z,5.19
2023-01-19T06:49:19.566Z,4.83
2023-01-19T06:52:07.478Z,4.45
2023-01-19T06:55:02.578Z,4.81
2023-01-19T06:57:57.381Z,7.74
2023-01-19T07:00:45.553Z,9.52
2023-01-19T07:03:36.533Z,9.72
2023-01-19T07:06:31.533Z,8.20
2023-01-19T07:09:20.592Z,6.92
2023-01-19T07:12:02.401Z,6.09
2023-01-19T07:14:50.528Z,5.47
2023-01-19T07:17:33.565Z,5.02
2023-01-19T07:20:30.427Z,4.67
2023-01-19T07:23:18.454Z,5.19
2023-01-19T07:25:54.725Z,7.91
2023-01-19T07:28:43.558Z,9.86
2023-01-19T07:31:18.935Z,9.79
2023-01-19T07:34:11.196Z,8.41
2023-01-19T07:36:54.574Z,7.32
2023-01-19T07:39:51.427Z,6.61
2023-01-19T07:42:39.556Z,6.02
2023-01-19T07:45:15.553Z,5.60
2023-01-19T07:48:03.400Z,5.27
2023-01-19T07:50:46.023Z,4.90
2023-01-19T07:53:27.856Z,5.18
2023-01-19T07:56:24.393Z,7.88
2023-01-19T07:59:20.515Z,9.83
2023-01-19T08:02:08.613Z,9.81
2023-01-19T08:04:53.137Z,8.42
2023-01-19T08:07:41.387Z,7.28
2023-01-19T08:10:42.385Z,6.55
2023-01-19T08:13:23.415Z,6.01
2023-01-19T08:16:05.693Z,5.61
2023-01-19T08:18:47.388Z,5.28
2023-01-19T08:21:28.536Z,5.01
2023-01-19T08:24:09.637Z,5.47
2023-01-19T08:26:50.691Z,8.42
2023-01-19T08:29:33.515Z,10.16
2023-01-19T08:32:14.767Z,9.65
2023-01-19T08:34:56.575Z,8.40
2023-01-19T08:37:45.959Z,7.37
2023-01-19T08:40:20.990Z,6.63
2023-01-19T08:43:14.372Z,6.12
2023-01-19T08:45:59.404Z,5.69
2023-01-19T08:48:47.392Z,5.52
2023-01-19T08:51:21.792Z,7.68
2023-01-19T08:54:09.365Z,9.47
2023-01-19T08:57:11.730Z,9.76
2023-01-19T09:00:28.497Z,8.48
2023-01-19T09:03:04.474Z,7.22
2023-01-19T09:05:47.350Z,6.59
2023-01-19T09:08:28.495Z,6.06
2023-01-19T09:11:09.360Z,5.91
2023-01-19T09:13:57.351Z,8.14
2023-01-19T09:16:45.356Z,10.12
2023-01-19T09:19:27.371Z,10.36
2023-01-19T09:22:15.532Z,8.89
2023-01-19T09:24:57.529Z,7.67
2023-01-19T09:27:52.537Z,6.76
2023-01-19T09:30:42.383Z,6.09
2023-01-19T09:33:19.496Z,5.64
2023-01-19T09:36:09.479Z,5.31
2023-01-19T09:38:44.616Z,5.07
2023-01-19T09:41:33.475Z,5.28
2023-01-19T09:44:16.345Z,7.69
2023-01-19T09:47:11.368Z,9.67
2023-01-19T09:50:06.503Z,10.26
2023-01-19T09:52:50.548Z,8.91
2023-01-19T09:55:38.351Z,7.66
2023-01-19T09:58:19.488Z,6.84
2023-01-19T10:01:15.423Z,6.18
2023-01-19T10:03:50.626Z,5.63
2023-01-19T10:06:38.346Z,5.19
2023-01-19T10:09:36.629Z,5.43
2023-01-19T10:12:48.527Z,8.23
2023-01-19T10:15:50.525Z,10.07
2023-01-19T10:18:58.498Z,9.42
2023-01-19T10:21:49.451Z,7.86
2023-01-19T10:24:29.490Z,6.89
2023-01-19T10:27:24.348Z,6.23
2023-01-19T10:29:59.509Z,6.12
2023-01-19T10:32:47.542Z,8.54
2023-01-19T10:35:25.647Z,9.90
2023-01-19T10:38:13.474Z,8.82
2023-01-19T10:41:14.341Z,7.58
2023-01-19T10:44:16.509Z,6.60
2023-01-19T10:47:06.463Z,5.93
2023-01-19T10:49:46.650Z,5.45
2023-01-19T10:52:43.315Z,5.75
2023-01-19T10:55:40.482Z,8.36
2023-01-19T10:58:37.474Z,9.59
2023-01-19T11:01:25.745Z,8.34
2023-01-19T11:04:12.516Z,7.26
2023-01-19T11:06:54.499Z,6.44
2023-01-19T11:09:36.511Z,5.90
2023-01-19T11:12:37.299Z,5.43
2023-01-19T11:15:23.250Z,5.72
2023-01-19T11:18:12.341Z,8.44
2023-01-19T11:20:59.315Z,9.71
2023-01-19T11:23:51.455Z,8.55
2023-01-19T11:26:56.496Z,7.27
2023-01-19T11:29:39.514Z,6.22
2023-01-19T11:32:29.335Z,5.57
2023-01-19T11:35:51.334Z,5.02
2023-01-19T11:38:27.540Z,5.62
2023-01-19T11:41:15.320Z,8.17
2023-01-19T11:44:29.352Z,9.84
2023-01-19T11:47:35.337Z,10.00
2023-01-19T11:50:20.566Z,8.27
2023-01-19T11:53:39.205Z,6.94
2023-01-19T11:56:23.735Z,5.97
2023-01-19T11:59:14.609Z,5.34
2023-01-19T12:01:58.444Z,5.67
2023-01-19T12:04:52.234Z,8.28
2023-01-19T12:07:33.673Z,9.22
2023-01-19T12:10:49.271Z,7.99
2023-01-19T12:13:39.501Z,6.49
2023-01-19T12:16:31.363Z,5.57
2023-01-19T12:19:19.615Z,5.95
2023-01-19T12:22:08.326Z,8.50
2023-01-19T12:24:48.475Z,9.50
2023-01-19T12:27:52.343Z,8.18
2023-01-19T12:30:35.146Z,6.66
2023-01-19T12:33:41.516Z,5.81
2023-01-19T12:36:42.258Z,7.65
2023-01-19T12:39:32.500Z,9.44
2023-01-19T12:42:29.342Z,8.90
2023-01-19T12:45:38.315Z,7.32
2023-01-19T12:48:40.440Z,6.14
2023-01-19T12:51:33.512Z,5.36
2023-01-19T12:54:21.253Z,5.61
2023-01-19T12:57:22.514Z,8.05
2023-01-19T13:00:15.408Z,9.55
2023-01-19T13:02:59.372Z,8.55
2023-01-19T13:05:47.349Z,7.11
2023-01-19T13:08:31.322Z,6.11
2023-01-19T13:11:33.348Z,5.34
2023-01-19T13:14:42.518Z,5.71
2023-01-19T13:17:45.300Z,8.44
2023-01-19T13:20:45.526Z,9.52
2023-01-19T13:23:59.318Z,8.09
2023-01-19T13:26:41.033Z,6.60
2023-01-19T13:29:32.249Z,5.68
2023-01-19T13:32:14.600Z,5.59
2023-01-19T13:35:06.297Z,7.99
2023-01-19T13:37:53.506Z,9.49
2023-01-19T13:40:52.307Z,8.38
2023-01-19T13:43:43.292Z,6.56
2023-01-19T13:46:19.753Z,5.55
2023-01-19T13:49:11.492Z,5.67
2023-01-19T13:51:53.380Z,8.32
2023-01-19T13:54:34.314Z,9.45
2023-01-19T13:57:30.467Z,8.28
2023-01-19T14:00:21.329Z,6.79
2023-01-19T14:03:10.331Z,5.63
2023-01-19T14:05:52.569Z,4.94
2023-01-19T14:08:41.396Z,5.33
2023-01-19T14:11:23.483Z,7.77
2023-01-19T14:14:12.466Z,9.52
2023-01-19T14:16:46.876Z,9.04
2023-01-19T14:19:35.498Z,7.51
2023-01-19T14:22:10.189Z,6.36
2023-01-19T14:24:59.482Z,5.53
2023-01-19T14:27:43.351Z,4.91
2023-01-19T14:30:36.293Z,5.28
2023-01-19T14:33:35.165Z,7.92
2023-01-19T14:36:37.497Z,9.22
2023-01-19T14:39:34.503Z,7.76
2023-01-19T14:42:29.275Z,6.38
2023-01-19T14:45:07.651Z,5.44
2023-01-19T14:48:25.486Z,5.80
2023-01-19T14:51:08.612Z,8.56
2023-01-19T14:54:05.310Z,9.14
2023-01-19T14:56:41.605Z,7.64
2023-01-19T14:59:29.521Z,6.39
2023-01-19T15:02:05.158Z,5.44
2023-01-19T15:04:55.520Z,5.48
2023-01-19T15:07:39.478Z,7.91
2023-01-19T15:10:36.375Z,9.00
2023-01-19T15:13:28.267Z,7.51
2023-01-19T15:16:04.570Z,6.22
2023-01-19T15:19:13.482Z,5.18
2023-01-19T15:22:02.339Z,5.71
2023-01-19T15:24:44.491Z,8.11
2023-01-19T15:27:32.474Z,9.30
2023-01-19T15:30:22.468Z,8.06
2023-01-19T15:33:11.276Z,6.52
2023-01-19T15:35:47.265Z,5.54
2023-01-19T15:38:36.486Z,5.09
2023-01-19T15:41:16.231Z,7.00
2023-01-19T15:44:05.480Z,9.22
2023-01-19T15:46:40.743Z,9.02
2023-01-19T15:49:28.479Z,7.47
2023-01-19T15:52:10.318Z,6.22
2023-01-19T15:55:01.644Z,5.32
2023-01-19T15:57:51.327Z,5.04
2023-01-19T16:00:47.609Z,7.35
2023-01-19T16:03:35.272Z,9.22
2023-01-19T16:06:10.626Z,8.38
2023-01-19T16:08:58.452Z,6.90
2023-01-19T16:11:38.806Z,5.78
2023-01-19T16:14:26.271Z,4.96
2023-01-19T16:17:02.234Z,5.01
2023-01-19T16:19:50.473Z,7.49
2023-01-19T16:22:25.784Z,9.35
2023-01-19T16:25:14.279Z,8.63
2023-01-19T16:27:56.457Z,7.08
2023-01-19T16:30:51.287Z,5.86
2023-01-19T16:33:46.447Z,4.98
2023-01-19T16:36:30.869Z,4.98
2023-01-19T16:39:30.255Z,7.50
2023-01-19T16:42:04.731Z,9.19
2023-01-19T16:44:53.465Z,8.49
2023-01-19T16:47:28.916Z,7.00
2023-01-19T16:50:21.382Z,5.82
2023-01-19T16:52:59.457Z,5.00
2023-01-19T16:55:59.203Z,4.98
2023-01-19T16:58:55.463Z,7.33
2023-01-19T17:01:46.558Z,8.86
2023-01-19T17:04:28.303Z,8.50
2023-01-19T17:07:09.791Z,6.99
2023-01-19T17:09:59.259Z,5.86
2023-01-19T17:12:38.335Z,5.79
2023-01-19T17:15:26.481Z,7.94
2023-01-19T17:18:01.871Z,8.67
2023-01-19T17:20:51.255Z,7.46
2023-01-19T17:23:32.421Z,6.14
2023-01-19T17:26:13.505Z,5.16
2023-01-19T17:28:55.462Z,5.14
2023-01-19T17:31:37.481Z,7.35
2023-01-19T17:34:19.267Z,8.96
2023-01-19T17:37:04.857Z,8.85
2023-01-19T17:39:50.286Z,7.34
2023-01-19T17:42:35.380Z,6.03
2023-01-19T17:45:23.278Z,5.26
2023-01-19T17:48:11.259Z,4.79
2023-01-19T17:50:49.607Z,6.81
2023-01-19T17:53:38.466Z,8.80
2023-01-19T17:56:29.260Z,8.73
2023-01-19T17:59:19.447Z,7.12
2023-01-19T18:02:01.319Z,5.97
2023-01-19T18:04:45.795Z,5.10
2023-01-19T18:07:35.250Z,4.54
2023-01-19T18:10:17.400Z,5.91
2023-01-19T18:12:58.663Z,8.18
2023-01-19T18:15:40.238Z,8.62
2023-01-19T18:18:26.657Z,7.20
2023-01-19T18:21:11.245Z,5.95
2023-01-19T18:23:52.458Z,5.03
2023-01-19T18:26:36.386Z,5.17
2023-01-19T18:29:19.792Z,7.62
2023-01-19T18:32:06.752Z,8.85
2023-01-19T18:35:00.267Z,7.64
2023-01-19T18:37:34.746Z,6.30
2023-01-19T18:40:31.803Z,5.39
2023-01-19T18:43:15.431Z,5.49
2023-01-19T18:45:56.614Z,8.05
2023-01-19T18:48:43.427Z,9.01
2023-01-19T18:51:25.486Z,7.67
2023-01-19T18:54:08.869Z,6.38
2023-01-19T18:57:14.174Z,5.30
2023-01-19T19:00:03.297Z,4.71
2023-01-19T19:02:46.347Z,6.62
2023-01-19T19:05:41.599Z,8.94
2023-01-19T19:08:30.374Z,8.47
2023-01-19T19:11:05.419Z,6.88
2023-01-19T19:13:53.278Z,5.71
2023-01-19T19:16:36.645Z,4.88
2023-01-19T19:19:34.630Z,5.48
2023-01-19T19:22:25.378Z,8.17
2023-01-19T19:25:00.769Z,8.78
2023-01-19T19:27:59.817Z,7.34
2023-01-19T19:30:39.273Z,5.94
2023-01-19T19:33:29.126Z,5.04
2023-01-19T19:36:06.104Z,4.38
2023-01-19T19:38:55.458Z,4.66
2023-01-19T19:41:41.994Z,7.32
2023-01-19T19:44:37.176Z,8.51
2023-01-19T19:47:26.443Z,7.21
2023-01-19T19:50:02.636Z,5.92
2023-01-19T19:52:57.470Z,5.05
2023-01-19T19:55:32.737Z,4.44
2023-01-19T19:58:27.120Z,4.00
2023-01-19T20:01:15.627Z,5.41
2023-01-19T20:04:07.815Z,8.07
2023-01-19T20:06:51.937Z,8.91
2023-01-19T20:09:47.401Z,7.38
2023-01-19T20:12:33.427Z,5.99
2023-01-19T20:15:28.262Z,5.07
2023-01-19T20:18:22.609Z,4.41
2023-01-19T20:21:02.225Z,4.86
2023-01-19T20:23:53.359Z,7.52
2023-01-19T20:26:32.362Z,8.85
2023-01-19T20:29:25.332Z,7.58
2023-01-19T20:32:11.549Z,6.24
2023-01-19T20:34:59.230Z,5.28
2023-01-19T20:37:35.949Z,4.73
2023-01-19T20:40:26.219Z,6.22
2023-01-19T20:43:02.359Z,8.49
2023-01-19T20:45:52.291Z,8.38
2023-01-19T20:48:27.520Z,6.96
2023-01-19T20:51:18.330Z,5.84
2023-01-19T20:53:54.563Z,5.02
2023-01-19T20:56:55.020Z,5.34
2023-01-19T20:59:45.227Z,7.92
2023-01-19T21:02:33.322Z,8.57
2023-01-19T21:05:15.419Z,7.22
2023-01-19T21:07:58.950Z,5.96
2023-01-19T21:10:41.248Z,5.09
2023-01-19T21:13:23.219Z,5.09
2023-01-19T21:16:07.301Z,7.48
2023-01-19T21:18:50.672Z,8.74
2023-01-19T21:21:33.206Z,7.48
2023-01-19T21:24:17.495Z,6.07
2023-01-19T21:26:59.289Z,5.14
2023-01-19T21:29:41.465Z,4.54
2023-01-19T21:32:23.195Z,6.27
2023-01-19T21:35:04.483Z,8.66
2023-01-19T21:37:46.227Z,8.46
2023-01-19T21:40:27.308Z,6.83
2023-01-19T21:43:09.254Z,5.66
2023-01-19T21:45:57.256Z,4.77
2023-01-19T21:48:31.801Z,5.02
2023-01-19T21:51:22.854Z,7.69
2023-01-19T21:54:06.516Z,8.74
2023-01-19T21:57:02.192Z,7.35
2023-01-19T21:59:43.588Z,5.90
2023-01-19T22:02:38.487Z,4.98
2023-01-19T22:05:20.175Z,4.26
2023-01-19T22:08:01.810Z,4.80
2023-01-19T22:10:44.181Z,7.29
2023-01-19T22:13:25.294Z,8.21
2023-01-19T22:16:10.189Z,7.08
2023-01-19T22:18:57.862Z,5.74
2023-01-19T22:21:42.195Z,4.87
2023-01-19T22:24:23.302Z,5.03
2023-01-19T22:27:04.202Z,7.49
2023-01-19T22:29:55.188Z,8.79
2023-01-19T22:32:29.662Z,7.51
2023-01-19T22:35:17.175Z,6.24
2023-01-19T22:37:51.577Z,5.26
2023-01-19T22:40:39.330Z,4.60
2023-01-19T22:43:21.165Z,4.76
2023-01-19T22:46:09.230Z,7.42
2023-01-19T22:48:50.181Z,8.81
2023-01-19T22:51:32.324Z,7.61
2023-01-19T22:54:13.188Z,6.34
2023-01-19T22:57:01.188Z,5.36
2023-01-19T22:59:56.187Z,4.66
2023-01-19T23:02:44.182Z,4.15
2023-01-19T23:05:19.297Z,5.40
2023-01-19T23:08:07.173Z,8.09
2023-01-19T23:10:46.295Z,8.78
2023-01-19T23:13:34.383Z,7.32
2023-01-19T23:16:09.303Z,6.06
2023-01-19T23:19:01.153Z,5.19
2023-01-19T23:21:44.186Z,4.53
2023-01-19T23:24:32.164Z,4.72
2023-01-19T23:27:14.173Z,7.31
2023-01-19T23:30:09.370Z,8.62
2023-01-19T23:32:58.195Z,7.14
2023-01-19T23:35:40.372Z,5.81
2023-01-19T23:38:30.350Z,4.77
2023-01-19T23:41:19.173Z,4.84
2023-01-19T23:43:53.814Z,7.40
2023-01-19T23:46:43.175Z,8.68
2023-01-19T23:49:18.868Z,7.28
2023-01-19T23:52:08.371Z,5.86
2023-01-19T23:54:46.086Z,4.89
2023-01-19T23:57:34.350Z,5.36
